sensor_id;sensor_type;location;lat;lon;timestamp;pressure;altitude;pressure_sealevel;temperature;humidity
77017;BME280;65949;53.132;17.930;2022-12-11T00:01:31;100450.70;;;-0.89;66.22
77017;BME280;65949;53.132;17.930;2022-12-11T00:03:58;100449.64;;;-0.84;66.17
77017;BME280;65949;53.132;17.930;2022-12-11T00:06:24;100448.58;;;-0.84;65.93
77017;BME280;65949;53.132;17.930;2022-12-11T00:08:52;100446.60;;;-0.84;65.81
77017;BME280;65949;53.132;17.930;2022-12-11T00:11:21;100442.48;;;-0.87;65.98
77017;BME280;65949;53.132;17.930;2022-12-11T00:13:48;100441.26;;;-0.89;65.87
77017;BME280;65949;53.132;17.930;2022-12-11T00:16:15;100435.52;;;-0.93;65.63
77017;BME280;65949;53.132;17.930;2022-12-11T00:18:41;100436.75;;;-0.96;65.85
77017;BME280;65949;53.132;17.930;2022-12-11T00:21:12;100433.48;;;-0.99;65.73
77017;BME280;65949;53.132;17.930;2022-12-11T00:23:39;100432.37;;;-1.01;65.69
77017;BME280;65949;53.132;17.930;2022-12-11T00:26:07;100432.48;;;-1.02;65.92
77017;BME280;65949;53.132;17.930;2022-12-11T00:28:35;100432.02;;;-1.01;65.57
77017;BME280;65949;53.132;17.930;2022-12-11T00:31:04;100434.97;;;-0.97;65.70
77017;BME280;65949;53.132;17.930;2022-12-11T00:33:31;100436.48;;;-0.95;65.54
77017;BME280;65949;53.132;17.930;2022-12-11T00:35:58;100433.23;;;-0.92;64.80
77017;BME280;65949;53.132;17.930;2022-12-11T00:38:25;100431.60;;;-0.94;65.23
77017;BME280;65949;53.132;17.930;2022-12-11T00:40:57;100433.71;;;-0.92;65.13
77017;BME280;65949;53.132;17.930;2022-12-11T00:43:24;100436.29;;;-0.91;65.04
77017;BME280;65949;53.132;17.930;2022-12-11T00:45:51;100432.87;;;-0.94;64.38
77017;BME280;65949;53.132;17.930;2022-12-11T00:48:18;100432.66;;;-0.99;64.01
77017;BME280;65949;53.132;17.930;2022-12-11T00:50:45;100431.07;;;-1.05;63.82
77017;BME280;65949;53.132;17.930;2022-12-11T00:53:12;100424.70;;;-1.12;63.95
77017;BME280;65949;53.132;17.930;2022-12-11T00:55:40;100428.77;;;-1.16;64.04
77017;BME280;65949;53.132;17.930;2022-12-11T00:58:08;100427.10;;;-1.12;64.29
77017;BME280;65949;53.132;17.930;2022-12-11T01:00:35;100432.63;;;-1.07;64.35
77017;BME280;65949;53.132;17.930;2022-12-11T01:03:02;100430.70;;;-1.03;64.52
77017;BME280;65949;53.132;17.930;2022-12-11T01:05:29;100428.39;;;-0.97;64.46
77017;BME280;65949;53.132;17.930;2022-12-11T01:07:56;100425.39;;;-0.94;64.26
77017;BME280;65949;53.132;17.930;2022-12-11T01:10:25;100424.73;;;-0.93;64.29
77017;BME280;65949;53.132;17.930;2022-12-11T01:15:22;100423.31;;;-0.89;64.34
77017;BME280;65949;53.132;17.930;2022-12-11T01:17:50;100422.92;;;-0.89;64.09
77017;BME280;65949;53.132;17.930;2022-12-11T01:20:19;100420.23;;;-0.91;64.55
77017;BME280;65949;53.132;17.930;2022-12-11T01:22:46;100413.81;;;-0.90;64.58
77017;BME280;65949;53.132;17.930;2022-12-11T01:25:13;100413.25;;;-0.91;64.66
77017;BME280;65949;53.132;17.930;2022-12-11T01:27:40;100411.69;;;-0.94;64.46
77017;BME280;65949;53.132;17.930;2022-12-11T01:30:07;100413.20;;;-1.00;64.52
77017;BME280;65949;53.132;17.930;2022-12-11T01:32:34;100412.37;;;-1.06;64.64
77017;BME280;65949;53.132;17.930;2022-12-11T01:35:06;100410.88;;;-1.06;64.74
77017;BME280;65949;53.132;17.930;2022-12-11T01:37:33;100403.42;;;-1.03;64.77
77017;BME280;65949;53.132;17.930;2022-12-11T01:40:00;100408.84;;;-1.01;64.64
77017;BME280;65949;53.132;17.930;2022-12-11T01:42:27;100405.85;;;-1.01;64.49
77017;BME280;65949;53.132;17.930;2022-12-11T01:45:37;100407.69;;;-1.02;64.65
77017;BME280;65949;53.132;17.930;2022-12-11T01:48:22;100406.14;;;-1.04;64.84
77017;BME280;65949;53.132;17.930;2022-12-11T01:50:53;100409.34;;;-1.05;64.90
77017;BME280;65949;53.132;17.930;2022-12-11T01:53:30;100404.97;;;-1.11;64.96
77017;BME280;65949;53.132;17.930;2022-12-11T01:55:59;100410.67;;;-1.16;65.24
77017;BME280;65949;53.132;17.930;2022-12-11T01:58:31;100415.54;;;-1.19;65.20
77017;BME280;65949;53.132;17.930;2022-12-11T02:00:59;100419.51;;;-1.17;65.01
77017;BME280;65949;53.132;17.930;2022-12-11T02:03:27;100415.21;;;-1.14;65.05
77017;BME280;65949;53.132;17.930;2022-12-11T02:05:57;100415.44;;;-1.10;65.18
77017;BME280;65949;53.132;17.930;2022-12-11T02:08:24;100418.70;;;-1.07;65.13
77017;BME280;65949;53.132;17.930;2022-12-11T02:18:47;100416.06;;;-1.10;64.53
77017;BME280;65949;53.132;17.930;2022-12-11T02:21:27;100413.45;;;-1.12;64.48
77017;BME280;65949;53.132;17.930;2022-12-11T02:24:06;100411.81;;;-1.15;64.58
77017;BME280;65949;53.132;17.930;2022-12-11T02:32:47;100410.66;;;-1.20;64.48
77017;BME280;65949;53.132;17.930;2022-12-11T02:38:00;100401.08;;;-1.14;64.37
77017;BME280;65949;53.132;17.930;2022-12-11T02:40:31;100398.29;;;-1.14;64.39
77017;BME280;65949;53.132;17.930;2022-12-11T02:43:03;100393.94;;;-1.13;64.88
77017;BME280;65949;53.132;17.930;2022-12-11T02:45:32;100396.28;;;-1.14;65.32
77017;BME280;65949;53.132;17.930;2022-12-11T02:48:02;100395.95;;;-1.17;65.29
77017;BME280;65949;53.132;17.930;2022-12-11T02:50:33;100396.81;;;-1.21;65.83
77017;BME280;65949;53.132;17.930;2022-12-11T02:53:02;100394.34;;;-1.27;66.15
77017;BME280;65949;53.132;17.930;2022-12-11T02:55:31;100393.50;;;-1.34;66.79
77017;BME280;65949;53.132;17.930;2022-12-11T02:58:13;100393.26;;;-1.35;66.71
77017;BME280;65949;53.132;17.930;2022-12-11T03:00:44;100391.80;;;-1.34;66.63
77017;BME280;65949;53.132;17.930;2022-12-11T03:03:11;100387.61;;;-1.35;66.80
77017;BME280;65949;53.132;17.930;2022-12-11T03:05:38;100388.48;;;-1.39;67.28
77017;BME280;65949;53.132;17.930;2022-12-11T03:08:06;100390.86;;;-1.48;66.81
77017;BME280;65949;53.132;17.930;2022-12-11T03:10:33;100386.20;;;-1.57;66.57
77017;BME280;65949;53.132;17.930;2022-12-11T03:13:00;100381.20;;;-1.67;66.92
77017;BME280;65949;53.132;17.930;2022-12-11T03:18:44;100385.20;;;-1.74;66.71
77017;BME280;65949;53.132;17.930;2022-12-11T03:21:32;100387.31;;;-1.81;66.56
77017;BME280;65949;53.132;17.930;2022-12-11T03:27:08;100382.14;;;-1.92;67.03
77017;BME280;65949;53.132;17.930;2022-12-11T03:29:53;100378.20;;;-1.96;66.79
77017;BME280;65949;53.132;17.930;2022-12-11T03:32:25;100368.95;;;-2.01;67.40
77017;BME280;65949;53.132;17.930;2022-12-11T03:37:35;100365.65;;;-2.02;67.73
77017;BME280;65949;53.132;17.930;2022-12-11T03:40:08;100370.77;;;-2.08;67.98
77017;BME280;65949;53.132;17.930;2022-12-11T03:42:37;100372.41;;;-2.13;68.51
77017;BME280;65949;53.132;17.930;2022-12-11T03:45:06;100369.55;;;-2.19;68.79
77017;BME280;65949;53.132;17.930;2022-12-11T03:47:35;100363.48;;;-2.25;68.90
77017;BME280;65949;53.132;17.930;2022-12-11T03:50:04;100357.97;;;-2.30;69.29
77017;BME280;65949;53.132;17.930;2022-12-11T03:52:34;100353.85;;;-2.33;68.82
77017;BME280;65949;53.132;17.930;2022-12-11T03:55:03;100356.94;;;-2.33;69.03
77017;BME280;65949;53.132;17.930;2022-12-11T03:57:33;100356.50;;;-2.34;68.69
77017;BME280;65949;53.132;17.930;2022-12-11T04:00:02;100358.79;;;-2.36;68.29
77017;BME280;65949;53.132;17.930;2022-12-11T04:02:39;100366.23;;;-2.40;68.17
77017;BME280;65949;53.132;17.930;2022-12-11T04:05:06;100369.64;;;-2.43;68.28
77017;BME280;65949;53.132;17.930;2022-12-11T04:07:33;100370.40;;;-2.45;68.19
77017;BME280;65949;53.132;17.930;2022-12-11T04:10:01;100371.45;;;-2.38;68.54
77017;BME280;65949;53.132;17.930;2022-12-11T04:12:27;100373.14;;;-2.32;68.12
77017;BME280;65949;53.132;17.930;2022-12-11T04:14:54;100373.85;;;-2.27;67.70
77017;BME280;65949;53.132;17.930;2022-12-11T04:17:32;100368.73;;;-2.24;67.49
77017;BME280;65949;53.132;17.930;2022-12-11T04:20:19;100372.09;;;-2.23;67.64
77017;BME280;65949;53.132;17.930;2022-12-11T04:23:12;100368.16;;;-2.23;67.55
77017;BME280;65949;53.132;17.930;2022-12-11T04:28:31;100368.92;;;-2.21;67.30
77017;BME280;65949;53.132;17.930;2022-12-11T04:30:57;100364.78;;;-2.21;67.19
77017;BME280;65949;53.132;17.930;2022-12-11T04:33:24;100361.30;;;-2.23;66.27
77017;BME280;65949;53.132;17.930;2022-12-11T04:35:51;100355.98;;;-2.29;66.50
77017;BME280;65949;53.132;17.930;2022-12-11T04:38:17;100356.36;;;-2.36;66.53
77017;BME280;65949;53.132;17.930;2022-12-11T04:40:44;100353.23;;;-2.41;66.71
77017;BME280;65949;53.132;17.930;2022-12-11T04:43:11;100355.49;;;-2.47;66.89
77017;BME280;65949;53.132;17.930;2022-12-11T04:45:37;100352.23;;;-2.51;67.04
77017;BME280;65949;53.132;17.930;2022-12-11T04:48:04;100356.38;;;-2.46;66.94
77017;BME280;65949;53.132;17.930;2022-12-11T04:50:31;100360.38;;;-2.41;66.97
77017;BME280;65949;53.132;17.930;2022-12-11T04:52:57;100360.45;;;-2.39;66.96
77017;BME280;65949;53.132;17.930;2022-12-11T04:55:24;100361.06;;;-2.37;67.02
77017;BME280;65949;53.132;17.930;2022-12-11T04:57:51;100364.03;;;-2.36;67.16
77017;BME280;65949;53.132;17.930;2022-12-11T05:00:18;100361.16;;;-2.38;67.09
77017;BME280;65949;53.132;17.930;2022-12-11T05:02:45;100360.25;;;-2.38;67.14
77017;BME280;65949;53.132;17.930;2022-12-11T05:05:11;100357.46;;;-2.36;67.42
77017;BME280;65949;53.132;17.930;2022-12-11T05:07:38;100357.02;;;-2.40;67.39
77017;BME280;65949;53.132;17.930;2022-12-11T05:10:06;100354.16;;;-2.39;67.08
77017;BME280;65949;53.132;17.930;2022-12-11T05:12:32;100351.95;;;-2.39;67.60
77017;BME280;65949;53.132;17.930;2022-12-11T05:14:59;100355.15;;;-2.41;67.11
77017;BME280;65949;53.132;17.930;2022-12-11T05:17:26;100352.46;;;-2.44;66.86
77017;BME280;65949;53.132;17.930;2022-12-11T05:19:52;100350.73;;;-2.49;66.58
77017;BME280;65949;53.132;17.930;2022-12-11T05:22:19;100343.95;;;-2.53;66.75
77017;BME280;65949;53.132;17.930;2022-12-11T05:24:46;100336.80;;;-2.56;67.27
77017;BME280;65949;53.132;17.930;2022-12-11T05:27:13;100340.83;;;-2.58;67.34
77017;BME280;65949;53.132;17.930;2022-12-11T05:29:39;100336.86;;;-2.58;67.42
77017;BME280;65949;53.132;17.930;2022-12-11T05:32:06;100335.34;;;-2.54;67.37
77017;BME280;65949;53.132;17.930;2022-12-11T05:34:33;100334.15;;;-2.50;67.47
77017;BME280;65949;53.132;17.930;2022-12-11T05:37:00;100331.23;;;-2.49;67.34
77017;BME280;65949;53.132;17.930;2022-12-11T05:39:27;100325.38;;;-2.51;67.16
77017;BME280;65949;53.132;17.930;2022-12-11T05:41:53;100321.34;;;-2.56;67.76
77017;BME280;65949;53.132;17.930;2022-12-11T05:44:20;100319.33;;;-2.59;67.78
77017;BME280;65949;53.132;17.930;2022-12-11T05:46:47;100317.52;;;-2.60;67.80
77017;BME280;65949;53.132;17.930;2022-12-11T05:49:15;100317.73;;;-2.59;67.91
77017;BME280;65949;53.132;17.930;2022-12-11T05:51:42;100314.77;;;-2.58;67.82
77017;BME280;65949;53.132;17.930;2022-12-11T05:54:09;100312.63;;;-2.54;67.94
77017;BME280;65949;53.132;17.930;2022-12-11T05:56:36;100315.78;;;-2.50;68.11
77017;BME280;65949;53.132;17.930;2022-12-11T05:59:04;100317.17;;;-2.45;67.93
77017;BME280;65949;53.132;17.930;2022-12-11T06:01:41;100324.35;;;-2.43;67.70
77017;BME280;65949;53.132;17.930;2022-12-11T06:04:10;100323.87;;;-2.45;67.82
77017;BME280;65949;53.132;17.930;2022-12-11T06:06:37;100321.68;;;-2.49;67.77
77017;BME280;65949;53.132;17.930;2022-12-11T06:09:06;100315.89;;;-2.50;68.27
77017;BME280;65949;53.132;17.930;2022-12-11T06:11:33;100314.17;;;-2.53;68.50
77017;BME280;65949;53.132;17.930;2022-12-11T06:14:02;100319.41;;;-2.54;68.36
77017;BME280;65949;53.132;17.930;2022-12-11T06:16:29;100317.24;;;-2.52;68.47
77017;BME280;65949;53.132;17.930;2022-12-11T06:18:56;100315.46;;;-2.47;68.04
77017;BME280;65949;53.132;17.930;2022-12-11T06:21:26;100318.45;;;-2.49;68.26
77017;BME280;65949;53.132;17.930;2022-12-11T06:23:55;100322.52;;;-2.50;68.21
77017;BME280;65949;53.132;17.930;2022-12-11T06:26:22;100323.48;;;-2.49;68.13
77017;BME280;65949;53.132;17.930;2022-12-11T06:28:49;100326.64;;;-2.48;68.34
77017;BME280;65949;53.132;17.930;2022-12-11T06:31:17;100325.96;;;-2.46;68.27
77017;BME280;65949;53.132;17.930;2022-12-11T06:33:45;100324.38;;;-2.46;68.52
77017;BME280;65949;53.132;17.930;2022-12-11T06:36:15;100322.34;;;-2.46;68.25
77017;BME280;65949;53.132;17.930;2022-12-11T06:38:42;100321.88;;;-2.46;68.49
77017;BME280;65949;53.132;17.930;2022-12-11T06:41:09;100323.20;;;-2.49;68.38
77017;BME280;65949;53.132;17.930;2022-12-11T06:43:38;100323.77;;;-2.51;68.66
77017;BME280;65949;53.132;17.930;2022-12-11T06:46:10;100322.72;;;-2.53;68.57
77017;BME280;65949;53.132;17.930;2022-12-11T06:48:38;100327.55;;;-2.56;68.08
77017;BME280;65949;53.132;17.930;2022-12-11T06:51:07;100331.67;;;-2.59;68.46
77017;BME280;65949;53.132;17.930;2022-12-11T06:53:34;100329.64;;;-2.60;67.45
77017;BME280;65949;53.132;17.930;2022-12-11T06:56:03;100329.73;;;-2.60;67.62
77017;BME280;65949;53.132;17.930;2022-12-11T06:58:32;100332.69;;;-2.65;67.57
77017;BME280;65949;53.132;17.930;2022-12-11T07:01:00;100330.96;;;-2.67;67.40
77017;BME280;65949;53.132;17.930;2022-12-11T07:03:27;100331.55;;;-2.68;67.76
77017;BME280;65949;53.132;17.930;2022-12-11T07:06:01;100335.60;;;-2.69;67.94
77017;BME280;65949;53.132;17.930;2022-12-11T07:08:28;100330.69;;;-2.69;68.21
77017;BME280;65949;53.132;17.930;2022-12-11T07:11:04;100327.50;;;-2.70;67.93
77017;BME280;65949;53.132;17.930;2022-12-11T07:13:31;100327.24;;;-2.66;68.12
77017;BME280;65949;53.132;17.930;2022-12-11T07:15:59;100322.64;;;-2.62;68.22
77017;BME280;65949;53.132;17.930;2022-12-11T07:18:27;100323.20;;;-2.59;68.17
77017;BME280;65949;53.132;17.930;2022-12-11T07:20:57;100322.02;;;-2.56;67.99
77017;BME280;65949;53.132;17.930;2022-12-11T07:23:26;100321.50;;;-2.51;68.21
77017;BME280;65949;53.132;17.930;2022-12-11T07:25:54;100316.61;;;-2.49;68.22
77017;BME280;65949;53.132;17.930;2022-12-11T07:28:21;100319.09;;;-2.52;67.94
77017;BME280;65949;53.132;17.930;2022-12-11T07:30:48;100323.66;;;-2.53;68.29
77017;BME280;65949;53.132;17.930;2022-12-11T07:33:15;100318.21;;;-2.53;68.39
77017;BME280;65949;53.132;17.930;2022-12-11T07:35:42;100320.34;;;-2.52;68.32
77017;BME280;65949;53.132;17.930;2022-12-11T07:38:09;100320.54;;;-2.52;68.61
77017;BME280;65949;53.132;17.930;2022-12-11T07:40:35;100323.59;;;-2.48;68.44
77017;BME280;65949;53.132;17.930;2022-12-11T07:43:02;100317.24;;;-2.43;68.33
77017;BME280;65949;53.132;17.930;2022-12-11T07:45:29;100316.52;;;-2.38;68.31
77017;BME280;65949;53.132;17.930;2022-12-11T07:47:56;100315.77;;;-2.36;68.49
77017;BME280;65949;53.132;17.930;2022-12-11T07:50:22;100320.33;;;-2.36;68.47
77017;BME280;65949;53.132;17.930;2022-12-11T07:52:49;100321.73;;;-2.34;68.40
77017;BME280;65949;53.132;17.930;2022-12-11T07:55:16;100317.94;;;-2.35;68.36
77017;BME280;65949;53.132;17.930;2022-12-11T07:57:42;100314.90;;;-2.42;68.35
77017;BME280;65949;53.132;17.930;2022-12-11T08:00:09;100315.77;;;-2.42;68.28
77017;BME280;65949;53.132;17.930;2022-12-11T08:02:41;100313.23;;;-2.38;68.26
77017;BME280;65949;53.132;17.930;2022-12-11T08:05:07;100315.58;;;-2.35;68.33
77017;BME280;65949;53.132;17.930;2022-12-11T08:07:34;100311.42;;;-2.38;67.80
77017;BME280;65949;53.132;17.930;2022-12-11T08:10:03;100308.69;;;-2.45;68.15
77017;BME280;65949;53.132;17.930;2022-12-11T08:12:30;100312.45;;;-2.47;68.34
77017;BME280;65949;53.132;17.930;2022-12-11T08:14:57;100315.02;;;-2.46;68.47
77017;BME280;65949;53.132;17.930;2022-12-11T08:17:23;100314.91;;;-2.45;68.25
77017;BME280;65949;53.132;17.930;2022-12-11T08:19:50;100319.70;;;-2.41;67.85
77017;BME280;65949;53.132;17.930;2022-12-11T08:22:17;100320.13;;;-2.42;67.75
77017;BME280;65949;53.132;17.930;2022-12-11T08:24:43;100321.71;;;-2.44;67.87
77017;BME280;65949;53.132;17.930;2022-12-11T08:27:10;100320.94;;;-2.46;68.14
77017;BME280;65949;53.132;17.930;2022-12-11T08:29:37;100319.20;;;-2.44;68.14
77017;BME280;65949;53.132;17.930;2022-12-11T08:32:04;100314.23;;;-2.45;67.85
77017;BME280;65949;53.132;17.930;2022-12-11T08:34:30;100313.73;;;-2.47;68.00
77017;BME280;65949;53.132;17.930;2022-12-11T08:36:57;100310.99;;;-2.41;67.71
77017;BME280;65949;53.132;17.930;2022-12-11T08:39:24;100306.52;;;-2.37;67.52
77017;BME280;65949;53.132;17.930;2022-12-11T08:41:51;100302.86;;;-2.35;68.03
77017;BME280;65949;53.132;17.930;2022-12-11T08:44:18;100302.95;;;-2.34;67.50
77017;BME280;65949;53.132;17.930;2022-12-11T08:46:45;100306.61;;;-2.37;67.86
77017;BME280;65949;53.132;17.930;2022-12-11T08:49:12;100312.02;;;-2.35;68.07
77017;BME280;65949;53.132;17.930;2022-12-11T08:51:38;100314.72;;;-2.29;67.80
77017;BME280;65949;53.132;17.930;2022-12-11T08:54:05;100318.81;;;-2.27;67.62
77017;BME280;65949;53.132;17.930;2022-12-11T08:56:32;100320.04;;;-2.21;67.56
77017;BME280;65949;53.132;17.930;2022-12-11T08:59:00;100314.02;;;-2.17;67.09
77017;BME280;65949;53.132;17.930;2022-12-11T09:01:27;100311.73;;;-2.11;67.18
77017;BME280;65949;53.132;17.930;2022-12-11T09:03:55;100314.05;;;-2.07;66.38
77017;BME280;65949;53.132;17.930;2022-12-11T09:06:24;100310.90;;;-2.14;65.93
77017;BME280;65949;53.132;17.930;2022-12-11T09:08:52;100318.90;;;-2.30;66.36
77017;BME280;65949;53.132;17.930;2022-12-11T09:11:22;100320.58;;;-2.34;66.53
77017;BME280;65949;53.132;17.930;2022-12-11T09:13:49;100312.95;;;-2.35;66.41
77017;BME280;65949;53.132;17.930;2022-12-11T09:16:19;100313.49;;;-2.33;66.05
77017;BME280;65949;53.132;17.930;2022-12-11T09:18:48;100309.31;;;-2.36;65.30
77017;BME280;65949;53.132;17.930;2022-12-11T09:21:19;100302.83;;;-2.44;65.36
77017;BME280;65949;53.132;17.930;2022-12-11T09:23:47;100299.25;;;-2.48;65.72
77017;BME280;65949;53.132;17.930;2022-12-11T09:26:18;100299.02;;;-2.46;65.93
77017;BME280;65949;53.132;17.930;2022-12-11T09:28:45;100297.27;;;-2.45;65.85
77017;BME280;65949;53.132;17.930;2022-12-11T09:31:15;100296.37;;;-2.39;66.00
77017;BME280;65949;53.132;17.930;2022-12-11T09:33:42;100294.04;;;-2.31;65.78
77017;BME280;65949;53.132;17.930;2022-12-11T09:36:10;100285.24;;;-2.21;65.74
77017;BME280;65949;53.132;17.930;2022-12-11T09:38:37;100282.27;;;-2.12;65.68
77017;BME280;65949;53.132;17.930;2022-12-11T09:46:36;100262.54;;;-2.15;65.78
77017;BME280;65949;53.132;17.930;2022-12-11T09:49:56;100258.52;;;-2.17;65.59
77017;BME280;65949;53.132;17.930;2022-12-11T09:54:51;100258.18;;;-2.11;65.78
77017;BME280;65949;53.132;17.930;2022-12-11T09:58:05;100254.73;;;-2.11;65.98
77017;BME280;65949;53.132;17.930;2022-12-11T10:08:51;100231.91;;;-2.05;66.62
77017;BME280;65949;53.132;17.930;2022-12-11T10:11:36;100222.05;;;-2.04;66.94
77017;BME280;65949;53.132;17.930;2022-12-11T10:14:14;100220.27;;;-1.98;66.97
77017;BME280;65949;53.132;17.930;2022-12-11T10:16:50;100217.16;;;-1.97;67.10
77017;BME280;65949;53.132;17.930;2022-12-11T10:19:18;100213.44;;;-1.97;67.28
77017;BME280;65949;53.132;17.930;2022-12-11T10:21:48;100209.41;;;-1.98;67.15
77017;BME280;65949;53.132;17.930;2022-12-11T10:26:57;100206.66;;;-1.87;67.40
77017;BME280;65949;53.132;17.930;2022-12-11T10:29:24;100206.34;;;-1.75;67.00
77017;BME280;65949;53.132;17.930;2022-12-11T10:31:55;100201.48;;;-1.62;66.89
77017;BME280;65949;53.132;17.930;2022-12-11T10:34:32;100195.14;;;-1.49;66.88
77017;BME280;65949;53.132;17.930;2022-12-11T10:37:00;100193.83;;;-1.46;66.85
77017;BME280;65949;53.132;17.930;2022-12-11T10:39:27;100189.75;;;-1.46;66.78
77017;BME280;65949;53.132;17.930;2022-12-11T10:41:55;100187.00;;;-1.51;66.95
77017;BME280;65949;53.132;17.930;2022-12-11T10:44:29;100185.58;;;-1.51;66.93
77017;BME280;65949;53.132;17.930;2022-12-11T10:47:05;100183.67;;;-1.49;67.27
77017;BME280;65949;53.132;17.930;2022-12-11T10:49:33;100180.02;;;-1.48;67.34
77017;BME280;65949;53.132;17.930;2022-12-11T10:52:01;100177.67;;;-1.40;67.25
77017;BME280;65949;53.132;17.930;2022-12-11T10:54:43;100167.52;;;-1.36;67.17
77017;BME280;65949;53.132;17.930;2022-12-11T10:57:13;100162.59;;;-1.33;67.17
77017;BME280;65949;53.132;17.930;2022-12-11T10:59:48;100155.10;;;-1.27;67.09
77017;BME280;65949;53.132;17.930;2022-12-11T11:02:27;100144.13;;;-1.23;66.99
77017;BME280;65949;53.132;17.930;2022-12-11T11:04:56;100135.48;;;-1.27;66.69
77017;BME280;65949;53.132;17.930;2022-12-11T11:07:26;100136.06;;;-1.28;66.76
77017;BME280;65949;53.132;17.930;2022-12-11T11:12:43;100124.08;;;-1.21;66.52
77017;BME280;65949;53.132;17.930;2022-12-11T11:15:25;100120.33;;;-1.15;66.53
77017;BME280;65949;53.132;17.930;2022-12-11T11:17:54;100119.08;;;-1.10;66.42
77017;BME280;65949;53.132;17.930;2022-12-11T11:20:29;100110.80;;;-1.10;66.22
77017;BME280;65949;53.132;17.930;2022-12-11T11:22:59;100109.73;;;-1.11;66.45
77017;BME280;65949;53.132;17.930;2022-12-11T11:25:28;100107.91;;;-1.10;66.43
77017;BME280;65949;53.132;17.930;2022-12-11T11:28:02;100108.09;;;-1.07;66.50
77017;BME280;65949;53.132;17.930;2022-12-11T11:30:30;100107.46;;;-1.05;66.33
77017;BME280;65949;53.132;17.930;2022-12-11T11:33:02;100109.45;;;-1.02;66.34
77017;BME280;65949;53.132;17.930;2022-12-11T11:35:30;100107.00;;;-0.96;66.28
77017;BME280;65949;53.132;17.930;2022-12-11T11:40:53;100101.50;;;-0.93;65.89
77017;BME280;65949;53.132;17.930;2022-12-11T11:43:37;100099.34;;;-0.92;65.22
77017;BME280;65949;53.132;17.930;2022-12-11T11:46:22;100104.29;;;-0.96;64.60
77017;BME280;65949;53.132;17.930;2022-12-11T11:49:06;100102.27;;;-1.09;64.53
77017;BME280;65949;53.132;17.930;2022-12-11T11:51:43;100103.67;;;-1.17;65.02
77017;BME280;65949;53.132;17.930;2022-12-11T11:57:17;100102.94;;;-1.18;65.34
77017;BME280;65949;53.132;17.930;2022-12-11T11:59:51;100098.10;;;-1.17;65.17
77017;BME280;65949;53.132;17.930;2022-12-11T12:02:20;100100.95;;;-1.12;65.01
77017;BME280;65949;53.132;17.930;2022-12-11T12:04:47;100097.71;;;-1.05;65.00
77017;BME280;65949;53.132;17.930;2022-12-11T12:07:24;100090.58;;;-1.01;64.90
77017;BME280;65949;53.132;17.930;2022-12-11T12:10:10;100091.88;;;-1.03;64.74
77017;BME280;65949;53.132;17.930;2022-12-11T12:12:55;100082.42;;;-1.11;64.74
77017;BME280;65949;53.132;17.930;2022-12-11T12:15:33;100083.12;;;-1.15;64.15
77017;BME280;65949;53.132;17.930;2022-12-11T12:18:20;100079.80;;;-1.17;64.54
77017;BME280;65949;53.132;17.930;2022-12-11T12:24:52;100078.69;;;-1.19;64.72
77017;BME280;65949;53.132;17.930;2022-12-11T12:27:29;100077.64;;;-1.17;64.53
77017;BME280;65949;53.132;17.930;2022-12-11T12:30:08;100076.52;;;-1.14;64.36
77017;BME280;65949;53.132;17.930;2022-12-11T12:32:59;100082.90;;;-1.13;64.65
77017;BME280;65949;53.132;17.930;2022-12-11T12:35:35;100085.94;;;-1.12;64.64
77017;BME280;65949;53.132;17.930;2022-12-11T12:38:12;100086.82;;;-1.14;64.72
77017;BME280;65949;53.132;17.930;2022-12-11T12:41:19;100087.33;;;-1.18;64.94
77017;BME280;65949;53.132;17.930;2022-12-11T12:46:45;100085.60;;;-1.24;65.18
77017;BME280;65949;53.132;17.930;2022-12-11T12:49:18;100081.94;;;-1.24;65.35
77017;BME280;65949;53.132;17.930;2022-12-11T12:51:50;100084.69;;;-1.16;65.38
77017;BME280;65949;53.132;17.930;2022-12-11T12:54:18;100082.55;;;-1.10;65.30
77017;BME280;65949;53.132;17.930;2022-12-11T12:56:47;100075.83;;;-1.08;65.27
77017;BME280;65949;53.132;17.930;2022-12-11T12:59:32;100072.70;;;-1.11;65.11
77017;BME280;65949;53.132;17.930;2022-12-11T13:02:00;100067.90;;;-1.13;65.44
77017;BME280;65949;53.132;17.930;2022-12-11T13:04:40;100065.94;;;-1.15;65.50
77017;BME280;65949;53.132;17.930;2022-12-11T13:07:16;100069.95;;;-1.16;65.55
77017;BME280;65949;53.132;17.930;2022-12-11T13:09:55;100065.57;;;-1.16;65.84
77017;BME280;65949;53.132;17.930;2022-12-11T13:12:40;100062.83;;;-1.22;66.00
77017;BME280;65949;53.132;17.930;2022-12-11T13:15:30;100065.52;;;-1.28;66.03
77017;BME280;65949;53.132;17.930;2022-12-11T13:17:59;100064.06;;;-1.29;65.92
77017;BME280;65949;53.132;17.930;2022-12-11T13:20:29;100065.58;;;-1.31;65.96
77017;BME280;65949;53.132;17.930;2022-12-11T13:23:14;100068.43;;;-1.34;66.08
77017;BME280;65949;53.132;17.930;2022-12-11T13:25:51;100072.16;;;-1.37;65.98
77017;BME280;65949;53.132;17.930;2022-12-11T13:31:02;100068.79;;;-1.45;66.26
77017;BME280;65949;53.132;17.930;2022-12-11T13:33:31;100065.22;;;-1.49;66.43
77017;BME280;65949;53.132;17.930;2022-12-11T13:38:48;100060.65;;;-1.56;66.62
77017;BME280;65949;53.132;17.930;2022-12-11T13:41:17;100059.72;;;-1.55;66.42
77017;BME280;65949;53.132;17.930;2022-12-11T13:43:47;100060.82;;;-1.54;66.42
77017;BME280;65949;53.132;17.930;2022-12-11T13:46:20;100067.01;;;-1.52;66.57
77017;BME280;65949;53.132;17.930;2022-12-11T13:48:54;100069.73;;;-1.53;66.49
77017;BME280;65949;53.132;17.930;2022-12-11T13:51:29;100072.55;;;-1.58;66.52
77017;BME280;65949;53.132;17.930;2022-12-11T13:54:16;100074.85;;;-1.62;66.81
77017;BME280;65949;53.132;17.930;2022-12-11T13:57:14;100075.88;;;-1.63;67.00
77017;BME280;65949;53.132;17.930;2022-12-11T13:59:49;100080.35;;;-1.69;67.16
77017;BME280;65949;53.132;17.930;2022-12-11T14:02:24;100074.21;;;-1.74;67.55
77017;BME280;65949;53.132;17.930;2022-12-11T14:04:58;100075.87;;;-1.75;67.61
77017;BME280;65949;53.132;17.930;2022-12-11T14:07:54;100074.10;;;-1.75;67.68
77017;BME280;65949;53.132;17.930;2022-12-11T14:10:23;100074.04;;;-1.78;68.15